sensor_id;sensor_type;location;lat;lon;timestamp;pressure;altitude;pressure_sealevel;temperature;humidity
71956;BME280;59829;50.562;6.258;2023-04-22T00:21:48;95008.09;;;7.24;100.00
71956;BME280;59829;50.562;6.258;2023-04-22T00:51:48;94991.97;;;7.55;100.00
71956;BME280;59829;50.562;6.258;2023-04-22T01:21:52;94980.72;;;7.58;100.00
71956;BME280;59829;50.562;6.258;2023-04-22T01:51:53;94963.22;;;7.95;100.00
71956;BME280;59829;50.562;6.258;2023-04-22T02:21:54;94950.13;;;8.09;100.00
71956;BME280;59829;50.562;6.258;2023-04-22T02:51:56;94946.81;;;7.88;100.00
71956;BME280;59829;50.562;6.258;2023-04-22T03:21:56;94929.28;;;7.74;100.00
71956;BME280;59829;50.562;6.258;2023-04-22T03:51:58;94892.94;;;8.02;100.00
71956;BME280;59829;50.562;6.258;2023-04-22T04:21:58;94883.59;;;8.22;100.00
71956;BME280;59829;50.562;6.258;2023-04-22T04:51:59;94869.41;;;8.49;100.00
71956;BME280;59829;50.562;6.258;2023-04-22T05:22:00;94886.66;;;8.75;100.00
71956;BME280;59829;50.562;6.258;2023-04-22T05:52:00;94901.03;;;9.34;100.00
71956;BME280;59829;50.562;6.258;2023-04-22T06:22:01;94901.28;;;9.97;100.00
71956;BME280;59829;50.562;6.258;2023-04-22T06:52:01;94895.91;;;10.73;100.00
71956;BME280;59829;50.562;6.258;2023-04-22T07:22:02;94884.56;;;11.55;100.00
71956;BME280;59829;50.562;6.258;2023-04-22T07:52:02;94865.44;;;12.44;100.00
71956;BME280;59829;50.562;6.258;2023-04-22T08:22:03;94858.78;;;13.16;100.00
71956;BME280;59829;50.562;6.258;2023-04-22T08:52:03;94847.81;;;13.71;100.00
71956;BME280;59829;50.562;6.258;2023-04-22T09:22:03;94841.13;;;14.09;100.00
71956;BME280;59829;50.562;6.258;2023-04-22T09:52:04;94862.78;;;14.93;96.67
71956;BME280;59829;50.562;6.258;2023-04-22T10:22:05;94847.84;;;15.78;91.19
71956;BME280;59829;50.562;6.258;2023-04-22T10:52:06;94829.03;;;16.28;86.51
71956;BME280;59829;50.562;6.258;2023-04-22T11:22:26;94878.84;;;16.37;82.72
71956;BME280;59829;50.562;6.258;2023-04-22T12:22:52;94862.13;;;17.05;78.61
71956;BME280;59829;50.562;6.258;2023-04-22T12:52:52;94874.31;;;16.90;76.82
71956;BME280;59829;50.562;6.258;2023-04-22T13:22:52;94891.94;;;16.50;77.24
71956;BME280;59829;50.562;6.258;2023-04-22T13:52:53;94896.50;;;16.19;78.54
71956;BME280;59829;50.562;6.258;2023-04-22T14:22:54;94881.13;;;16.47;79.65
71956;BME280;59829;50.562;6.258;2023-04-22T14:52:55;94892.88;;;15.98;79.86
71956;BME280;59829;50.562;6.258;2023-04-22T15:22:56;94915.50;;;15.13;81.88
71956;BME280;59829;50.562;6.258;2023-04-22T15:52:56;94911.81;;;14.85;86.24
71956;BME280;59829;50.562;6.258;2023-04-22T16:22:56;94902.53;;;14.75;90.53
71956;BME280;59829;50.562;6.258;2023-04-22T16:52:56;94904.28;;;14.36;94.38
71956;BME280;59829;50.562;6.258;2023-04-22T17:22:57;94907.28;;;14.00;98.69
71956;BME280;59829;50.562;6.258;2023-04-22T17:52:57;94909.25;;;13.82;100.00
71956;BME280;59829;50.562;6.258;2023-04-22T18:22:58;94923.13;;;13.48;100.00
71956;BME280;59829;50.562;6.258;2023-04-22T18:52:58;94944.03;;;13.29;100.00
71956;BME280;59829;50.562;6.258;2023-04-22T19:22:58;94985.13;;;13.13;100.00
71956;BME280;59829;50.562;6.258;2023-04-22T19:53:00;94998.44;;;12.58;100.00
71956;BME280;59829;50.562;6.258;2023-04-22T20:23:04;95003.25;;;12.27;100.00
71956;BME280;59829;50.562;6.258;2023-04-22T20:53:09;95012.19;;;11.97;100.00
71956;BME280;59829;50.562;6.258;2023-04-22T21:23:10;95003.00;;;11.68;100.00
71956;BME280;59829;50.562;6.258;2023-04-22T21:53:11;95007.19;;;11.34;100.00
71956;BME280;59829;50.562;6.258;2023-04-22T22:23:12;95028.78;;;11.13;100.00
71956;BME280;59829;50.562;6.258;2023-04-22T22:53:12;95025.09;;;10.98;100.00
71956;BME280;59829;50.562;6.258;2023-04-22T23:23:14;95029.53;;;10.69;100.00
71956;BME280;59829;50.562;6.258;2023-04-22T23:53:15;95021.28;;;10.47;100.00
